createdAt,value
2018-08-04T00:03:32.177Z,11.30
2018-08-04T00:08:36.835Z,14.10
2018-08-04T00:13:41.508Z,12.87
2018-08-04T00:18:46.284Z,12.10
2018-08-04T00:23:50.968Z,13.97
2018-08-04T00:28:55.663Z,12.37
2018-08-04T00:34:00.472Z,14.33
2018-08-04T00:39:08.283Z,13.00
2018-08-04T00:44:13.193Z,13.17
2018-08-04T00:49:17.966Z,13.33
2018-08-04T00:54:22.936Z,14.40
2018-08-04T00:59:27.807Z,13.50
2018-08-04T01:04:32.538Z,13.70
2018-08-04T01:09:37.423Z,13.80
2018-08-04T01:14:42.180Z,13.00
2018-08-04T01:19:46.770Z,13.30
2018-08-04T01:24:51.444Z,13.07
2018-08-04T01:29:56.168Z,13.30
2018-08-04T01:35:00.844Z,14.57
2018-08-04T01:40:06.835Z,17.13
2018-08-04T01:45:11.581Z,15.17
2018-08-04T01:50:16.344Z,14.80
2018-08-04T01:55:21.014Z,15.30
2018-08-04T02:00:25.692Z,14.63
2018-08-04T02:05:30.110Z,15.30
2018-08-04T02:10:34.995Z,14.57
2018-08-04T02:15:39.512Z,14.70
2018-08-04T02:20:44.285Z,15.00
2018-08-04T02:25:49.083Z,14.57
2018-08-04T02:30:53.739Z,14.53
2018-08-04T02:35:58.452Z,15.70
2018-08-04T02:41:03.447Z,14.93
2018-08-04T02:46:08.105Z,17.10
2018-08-04T02:51:12.794Z,15.73
2018-08-04T02:56:17.580Z,16.20
2018-08-04T03:01:22.190Z,16.67
2018-08-04T03:06:26.863Z,15.03
2018-08-04T03:11:31.655Z,16.37
2018-08-04T03:16:36.316Z,17.10
2018-08-04T03:21:40.993Z,17.07
2018-08-04T03:26:45.811Z,15.77
2018-08-04T03:31:50.457Z,16.73
2018-08-04T03:36:55.266Z,16.87
2018-08-04T03:41:59.954Z,20.33
2018-08-04T03:47:04.639Z,16.93
2018-08-04T03:52:09.373Z,17.63
2018-08-04T03:57:14.074Z,15.77
2018-08-04T04:02:19.091Z,20.63
2018-08-04T04:07:23.933Z,17.50
2018-08-04T04:12:28.614Z,16.33
2018-08-04T04:17:44.315Z,17.73
2018-08-04T04:22:49.640Z,18.37
2018-08-04T04:27:54.462Z,16.53
2018-08-04T04:32:59.219Z,16.30
2018-08-04T04:38:03.936Z,15.40
2018-08-04T04:43:08.717Z,15.37
2018-08-04T04:48:13.469Z,15.07
2018-08-04T04:53:18.131Z,15.83
2018-08-04T04:58:22.830Z,15.50
2018-08-04T05:03:27.476Z,15.70
2018-08-04T05:08:32.285Z,14.57
2018-08-04T05:13:36.991Z,15.30
2018-08-04T05:18:41.786Z,13.87
2018-08-04T05:23:46.479Z,13.47
2018-08-04T05:28:51.108Z,13.80
2018-08-04T05:33:55.717Z,14.23
2018-08-04T05:39:00.380Z,14.67
2018-08-04T05:44:05.331Z,14.77
2018-08-04T05:49:10.125Z,14.33
2018-08-04T05:54:14.960Z,13.70
2018-08-04T05:59:19.946Z,13.83
2018-08-04T06:04:24.700Z,14.60
2018-08-04T06:09:29.381Z,14.20
2018-08-04T06:14:34.115Z,14.17
2018-08-04T06:19:38.778Z,14.27
2018-08-04T06:24:43.626Z,13.73
2018-08-04T06:29:48.279Z,13.67
2018-08-04T06:34:53.071Z,13.60
2018-08-04T06:39:57.890Z,14.57
2018-08-04T06:45:02.695Z,14.83
2018-08-04T06:50:08.202Z,14.87
2018-08-04T06:55:12.846Z,14.33
2018-08-04T07:00:17.523Z,14.20
2018-08-04T07:05:22.262Z,15.17
2018-08-04T07:10:27.040Z,14.83
2018-08-04T07:15:31.737Z,14.87
2018-08-04T07:20:36.508Z,14.23
2018-08-04T07:25:41.120Z,14.53
2018-08-04T07:30:45.801Z,13.63
2018-08-04T07:35:50.474Z,15.30
2018-08-04T07:40:55.317Z,14.17
2018-08-04T07:46:00.044Z,13.37
2018-08-04T07:51:04.745Z,12.23
2018-08-04T07:56:09.412Z,12.00
2018-08-04T08:01:14.205Z,12.27
2018-08-04T08:06:18.956Z,11.60
2018-08-04T08:11:23.448Z,13.00
2018-08-04T08:16:28.130Z,14.40
2018-08-04T08:21:32.893Z,11.50
2018-08-04T08:26:37.602Z,11.63
2018-08-04T08:31:42.324Z,11.93
2018-08-04T08:36:47.030Z,10.87
2018-08-04T08:41:51.870Z,13.17
2018-08-04T08:46:56.568Z,13.13
2018-08-04T08:52:01.267Z,11.17
2018-08-04T08:57:06.033Z,11.67
2018-08-04T09:02:10.865Z,10.37
2018-08-04T09:07:15.616Z,10.37
2018-08-04T09:12:20.411Z,10.83
2018-08-04T09:17:25.174Z,10.57
2018-08-04T09:22:29.975Z,10.70
2018-08-04T09:27:34.831Z,10.20
2018-08-04T09:32:39.798Z,9.55
2018-08-04T09:37:45.004Z,10.80
2018-08-04T09:42:49.659Z,9.90
2018-08-04T09:47:54.346Z,9.00
2018-08-04T09:52:59.175Z,8.23
2018-08-04T09:58:03.688Z,5.85
2018-08-04T10:03:08.474Z,7.62
2018-08-04T10:08:13.089Z,5.67
2018-08-04T10:13:17.767Z,11.30
2018-08-04T10:18:22.413Z,6.90
2018-08-04T10:23:27.119Z,6.58
2018-08-04T10:28:31.844Z,6.90
2018-08-04T10:33:36.945Z,6.15
2018-08-04T10:38:41.714Z,8.25
2018-08-04T10:43:46.348Z,6.87
2018-08-04T10:48:51.113Z,6.03
2018-08-04T10:53:55.845Z,5.67
2018-08-04T10:59:00.529Z,6.17
2018-08-04T11:04:05.260Z,6.45
2018-08-04T11:09:11.523Z,8.18
2018-08-04T11:14:16.245Z,6.45
2018-08-04T11:19:20.632Z,6.20
2018-08-04T11:24:25.437Z,6.90
2018-08-04T11:29:30.170Z,6.25
2018-08-04T11:34:34.872Z,9.05
2018-08-04T11:39:39.508Z,6.35
2018-08-04T11:44:44.239Z,6.87
2018-08-04T11:49:49.013Z,8.70
2018-08-04T11:54:53.689Z,6.12
2018-08-04T11:59:58.039Z,7.62
2018-08-04T12:05:02.714Z,5.87
2018-08-04T12:10:08.821Z,5.97
2018-08-04T12:15:13.428Z,5.50
2018-08-04T12:20:18.095Z,5.67
2018-08-04T12:25:22.809Z,8.30
2018-08-04T12:30:27.514Z,6.62
2018-08-04T12:35:32.169Z,5.87
2018-08-04T12:40:37.001Z,6.00
2018-08-04T12:45:41.720Z,10.48
2018-08-04T12:50:46.464Z,7.08
2018-08-04T12:55:51.509Z,6.42
2018-08-04T13:00:56.365Z,10.70
2018-08-04T13:06:01.138Z,6.22
2018-08-04T13:11:06.008Z,6.47
2018-08-04T13:16:10.728Z,7.50
2018-08-04T13:21:15.395Z,7.33
2018-08-04T13:26:20.066Z,8.18
2018-08-04T13:31:24.709Z,7.10
2018-08-04T13:36:29.455Z,7.12
2018-08-04T13:41:34.145Z,6.40
2018-08-04T13:46:39.604Z,6.25
2018-08-04T13:51:44.317Z,7.35
2018-08-04T13:56:49.533Z,7.20
2018-08-04T14:01:54.375Z,5.90
2018-08-04T14:06:59.144Z,6.10
2018-08-04T14:12:03.909Z,7.00
2018-08-04T14:17:08.541Z,6.55
2018-08-04T14:22:13.433Z,5.90
2018-08-04T14:27:18.192Z,6.17
2018-08-04T14:32:23.213Z,6.37
2018-08-04T14:37:28.003Z,6.97
2018-08-04T14:42:34.314Z,6.58
2018-08-04T14:47:40.190Z,6.05
2018-08-04T14:52:45.394Z,6.55
2018-08-04T14:57:50.153Z,5.17
2018-08-04T15:02:59.026Z,8.43
2018-08-04T15:08:04.275Z,7.37
2018-08-04T15:13:12.763Z,8.53
2018-08-04T15:18:17.453Z,6.50
2018-08-04T15:23:27.852Z,7.85
2018-08-04T15:28:32.596Z,7.75
2018-08-04T15:33:37.386Z,6.85
2018-08-04T15:38:42.112Z,7.35
2018-08-04T15:43:46.737Z,5.83
2018-08-04T15:48:51.468Z,6.25
2018-08-04T15:53:56.192Z,7.12
2018-08-04T15:59:07.049Z,5.70
2018-08-04T16:04:12.098Z,6.37
2018-08-04T16:09:17.008Z,6.03
2018-08-04T16:14:21.695Z,6.47
2018-08-04T16:19:26.306Z,6.60
2018-08-04T16:24:31.102Z,5.95
2018-08-04T16:29:35.839Z,7.50
2018-08-04T16:34:40.640Z,6.60
2018-08-04T16:39:45.305Z,7.03
2018-08-04T16:44:49.984Z,6.80
2018-08-04T16:49:54.650Z,6.72
2018-08-04T16:54:59.419Z,9.85
2018-08-04T17:00:04.210Z,6.40
2018-08-04T17:05:08.932Z,7.00
2018-08-04T17:10:13.642Z,8.88
2018-08-04T17:15:18.465Z,7.25
2018-08-04T17:20:23.268Z,5.92
2018-08-04T17:25:27.999Z,8.43
2018-08-04T17:30:32.756Z,6.73
2018-08-04T17:35:37.470Z,7.13
2018-08-04T17:40:42.114Z,6.73
2018-08-04T17:45:46.766Z,8.37
2018-08-04T17:50:51.539Z,6.93
2018-08-04T17:55:56.170Z,10.30
2018-08-04T18:01:00.823Z,8.33
2018-08-04T18:06:05.572Z,6.70
2018-08-04T18:11:10.250Z,8.80
2018-08-04T18:16:14.921Z,8.33
2018-08-04T18:21:19.637Z,7.27
2018-08-04T18:26:24.521Z,7.00
2018-08-04T18:31:29.303Z,8.30
2018-08-04T18:36:34.273Z,7.07
2018-08-04T18:41:39.083Z,7.30
2018-08-04T18:46:43.872Z,10.63
2018-08-04T18:51:48.556Z,7.70
2018-08-04T18:56:53.270Z,7.63
2018-08-04T19:01:57.925Z,8.53
2018-08-04T19:07:02.579Z,7.60
2018-08-04T19:12:07.336Z,7.67
2018-08-04T19:17:12.138Z,8.97
2018-08-04T19:22:17.181Z,9.77
2018-08-04T19:27:21.941Z,8.87
2018-08-04T19:32:26.607Z,7.57
2018-08-04T19:37:31.323Z,8.73
2018-08-04T19:42:36.028Z,7.50
2018-08-04T19:47:40.713Z,8.30
2018-08-04T19:52:45.547Z,9.73
2018-08-04T19:57:50.383Z,8.73
2018-08-04T20:02:55.052Z,7.63
2018-08-04T20:08:00.108Z,8.67
2018-08-04T20:13:04.824Z,9.40
2018-08-04T20:18:09.470Z,7.83
2018-08-04T20:23:14.215Z,10.40
2018-08-04T20:28:18.913Z,10.43
2018-08-04T20:33:23.704Z,7.47
2018-08-04T20:38:28.398Z,8.00
2018-08-04T20:43:33.127Z,8.23
2018-08-04T20:48:37.830Z,9.57
2018-08-04T20:53:42.504Z,9.53
2018-08-04T20:58:47.247Z,8.63
2018-08-04T21:03:52.088Z,8.87
2018-08-04T21:08:56.809Z,8.40
2018-08-04T21:14:01.613Z,8.07
2018-08-04T21:19:06.374Z,11.80
2018-08-04T21:24:11.020Z,8.00
2018-08-04T21:29:15.793Z,7.37
2018-08-04T21:34:20.723Z,9.80
2018-08-04T21:39:25.481Z,5.47
2018-08-04T21:44:30.398Z,7.03
2018-08-04T21:49:35.182Z,5.83
2018-08-04T21:54:39.778Z,5.10
2018-08-04T21:59:44.412Z,5.37
2018-08-04T22:04:49.110Z,7.37
2018-08-04T22:09:53.797Z,6.53
2018-08-04T22:14:58.520Z,3.40
2018-08-04T22:20:03.176Z,3.73
2018-08-04T22:25:10.130Z,6.43
2018-08-04T22:30:16.136Z,4.70
2018-08-04T22:35:21.309Z,6.07
2018-08-04T22:40:26.081Z,3.73
2018-08-04T22:46:14.743Z,5.83
2018-08-04T22:51:20.907Z,2.60
2018-08-04T22:56:25.781Z,3.00
2018-08-04T23:01:31.256Z,4.40
2018-08-04T23:06:35.939Z,4.23
2018-08-04T23:11:40.564Z,4.60
2018-08-04T23:16:45.309Z,5.07
2018-08-04T23:21:50.106Z,3.73
2018-08-04T23:26:54.885Z,4.10
2018-08-04T23:31:59.706Z,4.60
2018-08-04T23:37:06.382Z,4.70
2018-08-04T23:42:12.663Z,3.50
2018-08-04T23:47:17.340Z,2.40
2018-08-04T23:52:22.013Z,3.43
2018-08-04T23:57:26.831Z,3.33
